sensor_id;sensor_type;location;lat;lon;timestamp;P1;durP1;ratioP1;P2;durP2;ratioP2
25511;SDS011;13414;44.534;18.700;2022-11-27T00:00:04;476.30;;;294.85;;
25511;SDS011;13414;44.534;18.700;2022-11-27T00:02:38;494.60;;;301.08;;
25511;SDS011;13414;44.534;18.700;2022-11-27T00:05:07;481.13;;;303.27;;
25511;SDS011;13414;44.534;18.700;2022-11-27T00:07:35;476.42;;;302.75;;
25511;SDS011;13414;44.534;18.700;2022-11-27T00:10:02;474.30;;;291.83;;
25511;SDS011;13414;44.534;18.700;2022-11-27T00:12:30;450.98;;;278.88;;
25511;SDS011;13414;44.534;18.700;2022-11-27T00:14:58;451.17;;;280.73;;
25511;SDS011;13414;44.534;18.700;2022-11-27T00:17:25;468.33;;;284.52;;
25511;SDS011;13414;44.534;18.700;2022-11-27T00:19:53;462.48;;;282.35;;
25511;SDS011;13414;44.534;18.700;2022-11-27T00:22:21;461.45;;;279.63;;
25511;SDS011;13414;44.534;18.700;2022-11-27T00:24:50;447.63;;;277.73;;
25511;SDS011;13414;44.534;18.700;2022-11-27T00:27:18;420.95;;;265.40;;
25511;SDS011;13414;44.534;18.700;2022-11-27T00:29:45;395.80;;;253.77;;
25511;SDS011;13414;44.534;18.700;2022-11-27T00:32:12;408.23;;;252.85;;
25511;SDS011;13414;44.534;18.700;2022-11-27T00:34:40;408.60;;;254.23;;
25511;SDS011;13414;44.534;18.700;2022-11-27T00:37:07;405.65;;;253.35;;
25511;SDS011;13414;44.534;18.700;2022-11-27T00:39:36;388.90;;;247.85;;
25511;SDS011;13414;44.534;18.700;2022-11-27T00:42:05;398.17;;;241.85;;
25511;SDS011;13414;44.534;18.700;2022-11-27T00:44:32;389.02;;;242.65;;
25511;SDS011;13414;44.534;18.700;2022-11-27T00:46:59;374.50;;;235.52;;
25511;SDS011;13414;44.534;18.700;2022-11-27T00:49:27;391.40;;;247.23;;
25511;SDS011;13414;44.534;18.700;2022-11-27T00:51:54;393.02;;;249.95;;
25511;SDS011;13414;44.534;18.700;2022-11-27T00:54:22;416.33;;;256.05;;
25511;SDS011;13414;44.534;18.700;2022-11-27T00:56:51;398.33;;;251.98;;
25511;SDS011;13414;44.534;18.700;2022-11-27T00:59:18;398.48;;;252.32;;
25511;SDS011;13414;44.534;18.700;2022-11-27T01:01:45;387.95;;;244.18;;
25511;SDS011;13414;44.534;18.700;2022-11-27T01:04:14;377.63;;;238.98;;
25511;SDS011;13414;44.534;18.700;2022-11-27T01:06:42;379.38;;;236.77;;
25511;SDS011;13414;44.534;18.700;2022-11-27T01:09:10;386.98;;;244.75;;
25511;SDS011;13414;44.534;18.700;2022-11-27T01:11:38;393.48;;;239.85;;
25511;SDS011;13414;44.534;18.700;2022-11-27T01:14:09;370.15;;;233.23;;
25511;SDS011;13414;44.534;18.700;2022-11-27T01:16:38;447.50;;;278.65;;
25511;SDS011;13414;44.534;18.700;2022-11-27T01:19:05;449.08;;;283.15;;
25511;SDS011;13414;44.534;18.700;2022-11-27T01:21:33;499.92;;;313.58;;
25511;SDS011;13414;44.534;18.700;2022-11-27T01:24:01;499.80;;;316.73;;
25511;SDS011;13414;44.534;18.700;2022-11-27T01:26:29;493.92;;;307.63;;
25511;SDS011;13414;44.534;18.700;2022-11-27T01:28:57;486.20;;;304.58;;
25511;SDS011;13414;44.534;18.700;2022-11-27T01:31:29;455.45;;;288.85;;
25511;SDS011;13414;44.534;18.700;2022-11-27T01:33:58;443.63;;;274.30;;
25511;SDS011;13414;44.534;18.700;2022-11-27T01:36:27;434.60;;;268.50;;
25511;SDS011;13414;44.534;18.700;2022-11-27T01:38:55;413.13;;;260.10;;
25511;SDS011;13414;44.534;18.700;2022-11-27T01:41:23;400.83;;;248.45;;
25511;SDS011;13414;44.534;18.700;2022-11-27T01:43:53;375.05;;;239.70;;
25511;SDS011;13414;44.534;18.700;2022-11-27T01:46:27;385.38;;;243.93;;
25511;SDS011;13414;44.534;18.700;2022-11-27T01:49:04;363.33;;;230.80;;
25511;SDS011;13414;44.534;18.700;2022-11-27T01:51:46;371.85;;;236.65;;
25511;SDS011;13414;44.534;18.700;2022-11-27T01:54:17;371.00;;;235.75;;
25511;SDS011;13414;44.534;18.700;2022-11-27T01:56:47;370.05;;;235.43;;
25511;SDS011;13414;44.534;18.700;2022-11-27T01:59:17;353.98;;;225.00;;
25511;SDS011;13414;44.534;18.700;2022-11-27T02:01:46;357.77;;;226.65;;
25511;SDS011;13414;44.534;18.700;2022-11-27T02:04:15;367.67;;;228.15;;
25511;SDS011;13414;44.534;18.700;2022-11-27T02:06:44;372.55;;;232.10;;
25511;SDS011;13414;44.534;18.700;2022-11-27T02:09:12;382.77;;;241.90;;
25511;SDS011;13414;44.534;18.700;2022-11-27T02:11:40;374.40;;;238.48;;
25511;SDS011;13414;44.534;18.700;2022-11-27T02:14:22;349.00;;;221.18;;
25511;SDS011;13414;44.534;18.700;2022-11-27T02:17:00;359.73;;;226.90;;
25511;SDS011;13414;44.534;18.700;2022-11-27T02:19:36;372.88;;;235.20;;
25511;SDS011;13414;44.534;18.700;2022-11-27T02:22:21;364.25;;;232.38;;
25511;SDS011;13414;44.534;18.700;2022-11-27T02:24:55;382.60;;;240.80;;
25511;SDS011;13414;44.534;18.700;2022-11-27T02:27:38;392.08;;;243.23;;
25511;SDS011;13414;44.534;18.700;2022-11-27T02:30:19;402.05;;;247.75;;
25511;SDS011;13414;44.534;18.700;2022-11-27T02:32:48;410.90;;;256.92;;
25511;SDS011;13414;44.534;18.700;2022-11-27T02:35:22;405.92;;;252.80;;
25511;SDS011;13414;44.534;18.700;2022-11-27T02:37:55;405.70;;;257.73;;
25511;SDS011;13414;44.534;18.700;2022-11-27T02:40:26;420.35;;;266.25;;
25511;SDS011;13414;44.534;18.700;2022-11-27T02:42:58;427.08;;;269.05;;
25511;SDS011;13414;44.534;18.700;2022-11-27T02:48:04;401.45;;;260.23;;
25511;SDS011;13414;44.534;18.700;2022-11-27T02:50:33;412.20;;;267.60;;
25511;SDS011;13414;44.534;18.700;2022-11-27T02:53:05;401.02;;;252.55;;
25511;SDS011;13414;44.534;18.700;2022-11-27T02:55:35;406.08;;;250.48;;
25511;SDS011;13414;44.534;18.700;2022-11-27T02:58:07;382.77;;;241.52;;
25511;SDS011;13414;44.534;18.700;2022-11-27T03:00:40;395.25;;;251.68;;
25511;SDS011;13414;44.534;18.700;2022-11-27T03:03:09;386.10;;;243.45;;
25511;SDS011;13414;44.534;18.700;2022-11-27T03:05:39;363.65;;;226.43;;
25511;SDS011;13414;44.534;18.700;2022-11-27T03:08:12;358.08;;;224.00;;
25511;SDS011;13414;44.534;18.700;2022-11-27T03:10:47;353.70;;;220.27;;
25511;SDS011;13414;44.534;18.700;2022-11-27T03:13:20;343.13;;;216.93;;
25511;SDS011;13414;44.534;18.700;2022-11-27T03:15:50;335.02;;;206.05;;
25511;SDS011;13414;44.534;18.700;2022-11-27T03:18:27;336.65;;;213.10;;
25511;SDS011;13414;44.534;18.700;2022-11-27T03:21:03;348.05;;;221.13;;
25511;SDS011;13414;44.534;18.700;2022-11-27T03:23:34;342.63;;;216.32;;
25511;SDS011;13414;44.534;18.700;2022-11-27T03:26:02;353.17;;;223.25;;
25511;SDS011;13414;44.534;18.700;2022-11-27T03:28:30;361.23;;;228.73;;
25511;SDS011;13414;44.534;18.700;2022-11-27T03:31:01;349.70;;;216.50;;
25511;SDS011;13414;44.534;18.700;2022-11-27T03:33:28;320.70;;;200.27;;
25511;SDS011;13414;44.534;18.700;2022-11-27T03:35:57;312.15;;;196.70;;
25511;SDS011;13414;44.534;18.700;2022-11-27T03:38:25;315.52;;;193.30;;
25511;SDS011;13414;44.534;18.700;2022-11-27T03:40:53;307.73;;;193.45;;
25511;SDS011;13414;44.534;18.700;2022-11-27T03:43:28;309.33;;;194.20;;
25511;SDS011;13414;44.534;18.700;2022-11-27T03:46:05;312.80;;;192.18;;
25511;SDS011;13414;44.534;18.700;2022-11-27T03:48:37;301.95;;;190.57;;
25511;SDS011;13414;44.534;18.700;2022-11-27T03:51:10;300.73;;;185.18;;
25511;SDS011;13414;44.534;18.700;2022-11-27T03:53:44;292.33;;;173.10;;
25511;SDS011;13414;44.534;18.700;2022-11-27T03:56:20;285.67;;;176.38;;
25511;SDS011;13414;44.534;18.700;2022-11-27T03:58:57;292.67;;;180.70;;
25511;SDS011;13414;44.534;18.700;2022-11-27T04:01:30;291.20;;;181.68;;
25511;SDS011;13414;44.534;18.700;2022-11-27T04:03:57;304.83;;;180.57;;
25511;SDS011;13414;44.534;18.700;2022-11-27T04:06:25;294.42;;;180.30;;
25511;SDS011;13414;44.534;18.700;2022-11-27T04:08:53;283.83;;;177.65;;
25511;SDS011;13414;44.534;18.700;2022-11-27T04:11:20;292.75;;;179.30;;
25511;SDS011;13414;44.534;18.700;2022-11-27T04:13:47;292.38;;;180.48;;
25511;SDS011;13414;44.534;18.700;2022-11-27T04:16:16;309.50;;;188.63;;
25511;SDS011;13414;44.534;18.700;2022-11-27T04:18:45;301.33;;;185.15;;
25511;SDS011;13414;44.534;18.700;2022-11-27T04:21:12;295.48;;;184.10;;
25511;SDS011;13414;44.534;18.700;2022-11-27T04:23:41;290.77;;;182.45;;
25511;SDS011;13414;44.534;18.700;2022-11-27T04:26:08;289.52;;;182.60;;
25511;SDS011;13414;44.534;18.700;2022-11-27T04:28:36;296.13;;;191.43;;
25511;SDS011;13414;44.534;18.700;2022-11-27T04:31:03;294.02;;;183.05;;
25511;SDS011;13414;44.534;18.700;2022-11-27T04:33:30;306.15;;;194.27;;
25511;SDS011;13414;44.534;18.700;2022-11-27T04:35:59;292.65;;;184.18;;
25511;SDS011;13414;44.534;18.700;2022-11-27T04:38:27;291.95;;;183.13;;
25511;SDS011;13414;44.534;18.700;2022-11-27T04:40:54;292.67;;;189.15;;
25511;SDS011;13414;44.534;18.700;2022-11-27T04:43:22;300.83;;;194.60;;
25511;SDS011;13414;44.534;18.700;2022-11-27T04:45:49;301.75;;;195.30;;
25511;SDS011;13414;44.534;18.700;2022-11-27T04:48:16;289.85;;;179.98;;
25511;SDS011;13414;44.534;18.700;2022-11-27T04:50:44;284.38;;;177.68;;
25511;SDS011;13414;44.534;18.700;2022-11-27T04:53:12;280.00;;;173.45;;
25511;SDS011;13414;44.534;18.700;2022-11-27T04:55:40;273.13;;;168.80;;
25511;SDS011;13414;44.534;18.700;2022-11-27T04:58:07;272.67;;;169.65;;
25511;SDS011;13414;44.534;18.700;2022-11-27T05:00:34;254.43;;;160.27;;
25511;SDS011;13414;44.534;18.700;2022-11-27T05:03:02;248.90;;;156.73;;
25511;SDS011;13414;44.534;18.700;2022-11-27T05:05:29;247.25;;;158.50;;
25511;SDS011;13414;44.534;18.700;2022-11-27T05:07:56;261.15;;;165.13;;
25511;SDS011;13414;44.534;18.700;2022-11-27T05:10:25;261.00;;;163.07;;
25511;SDS011;13414;44.534;18.700;2022-11-27T05:12:52;262.75;;;167.85;;
25511;SDS011;13414;44.534;18.700;2022-11-27T05:15:19;264.83;;;169.65;;
25511;SDS011;13414;44.534;18.700;2022-11-27T05:17:47;272.55;;;171.57;;
25511;SDS011;13414;44.534;18.700;2022-11-27T05:20:14;271.23;;;170.55;;
25511;SDS011;13414;44.534;18.700;2022-11-27T05:22:41;267.30;;;169.30;;
25511;SDS011;13414;44.534;18.700;2022-11-27T05:25:10;269.20;;;169.93;;
25511;SDS011;13414;44.534;18.700;2022-11-27T05:27:39;278.67;;;174.50;;
25511;SDS011;13414;44.534;18.700;2022-11-27T05:30:06;270.17;;;169.43;;
25511;SDS011;13414;44.534;18.700;2022-11-27T05:32:34;261.23;;;164.27;;
25511;SDS011;13414;44.534;18.700;2022-11-27T05:35:02;258.42;;;163.63;;
25511;SDS011;13414;44.534;18.700;2022-11-27T05:37:29;261.05;;;167.05;;
25511;SDS011;13414;44.534;18.700;2022-11-27T05:39:56;269.98;;;168.27;;
25511;SDS011;13414;44.534;18.700;2022-11-27T05:42:23;274.40;;;173.35;;
25511;SDS011;13414;44.534;18.700;2022-11-27T05:44:52;274.75;;;177.25;;
25511;SDS011;13414;44.534;18.700;2022-11-27T05:47:19;282.52;;;178.15;;
25511;SDS011;13414;44.534;18.700;2022-11-27T05:49:47;284.27;;;177.88;;
25511;SDS011;13414;44.534;18.700;2022-11-27T05:52:14;277.23;;;175.88;;
25511;SDS011;13414;44.534;18.700;2022-11-27T05:54:42;283.20;;;179.95;;
25511;SDS011;13414;44.534;18.700;2022-11-27T05:57:09;279.42;;;173.27;;
25511;SDS011;13414;44.534;18.700;2022-11-27T05:59:36;280.38;;;176.57;;
25511;SDS011;13414;44.534;18.700;2022-11-27T06:02:05;281.20;;;177.07;;
25511;SDS011;13414;44.534;18.700;2022-11-27T06:04:32;275.85;;;173.95;;
25511;SDS011;13414;44.534;18.700;2022-11-27T06:07:00;267.77;;;170.55;;
25511;SDS011;13414;44.534;18.700;2022-11-27T06:09:27;269.95;;;170.60;;
25511;SDS011;13414;44.534;18.700;2022-11-27T06:11:54;278.27;;;173.63;;
25511;SDS011;13414;44.534;18.700;2022-11-27T06:14:21;270.00;;;172.05;;
25511;SDS011;13414;44.534;18.700;2022-11-27T06:16:49;289.05;;;179.02;;
25511;SDS011;13414;44.534;18.700;2022-11-27T06:19:17;285.55;;;177.70;;
25511;SDS011;13414;44.534;18.700;2022-11-27T06:21:45;277.90;;;176.98;;
25511;SDS011;13414;44.534;18.700;2022-11-27T06:24:12;272.63;;;171.43;;
25511;SDS011;13414;44.534;18.700;2022-11-27T06:26:39;277.38;;;174.02;;
25511;SDS011;13414;44.534;18.700;2022-11-27T06:29:07;279.65;;;180.20;;
25511;SDS011;13414;44.534;18.700;2022-11-27T06:31:35;278.73;;;177.88;;
25511;SDS011;13414;44.534;18.700;2022-11-27T06:34:02;274.70;;;173.52;;
25511;SDS011;13414;44.534;18.700;2022-11-27T06:36:32;273.00;;;176.40;;
25511;SDS011;13414;44.534;18.700;2022-11-27T06:39:03;303.30;;;188.48;;
25511;SDS011;13414;44.534;18.700;2022-11-27T06:41:31;285.17;;;186.32;;
25511;SDS011;13414;44.534;18.700;2022-11-27T06:43:58;294.38;;;188.40;;
25511;SDS011;13414;44.534;18.700;2022-11-27T06:46:26;298.58;;;198.60;;
25511;SDS011;13414;44.534;18.700;2022-11-27T06:48:54;302.02;;;196.55;;
25511;SDS011;13414;44.534;18.700;2022-11-27T06:51:24;318.88;;;204.70;;
25511;SDS011;13414;44.534;18.700;2022-11-27T06:53:54;309.85;;;201.35;;
25511;SDS011;13414;44.534;18.700;2022-11-27T06:56:22;298.83;;;200.05;;
25511;SDS011;13414;44.534;18.700;2022-11-27T06:58:51;310.30;;;204.60;;
25511;SDS011;13414;44.534;18.700;2022-11-27T07:01:20;317.08;;;210.80;;
25511;SDS011;13414;44.534;18.700;2022-11-27T07:03:48;307.75;;;202.18;;
25511;SDS011;13414;44.534;18.700;2022-11-27T07:06:17;302.70;;;198.80;;
25511;SDS011;13414;44.534;18.700;2022-11-27T07:08:46;314.27;;;202.60;;
25511;SDS011;13414;44.534;18.700;2022-11-27T07:11:16;306.58;;;198.55;;
25511;SDS011;13414;44.534;18.700;2022-11-27T07:13:47;325.95;;;212.32;;
25511;SDS011;13414;44.534;18.700;2022-11-27T07:16:15;307.23;;;208.18;;
25511;SDS011;13414;44.534;18.700;2022-11-27T07:18:45;306.63;;;199.38;;
25511;SDS011;13414;44.534;18.700;2022-11-27T07:21:14;296.63;;;195.23;;
25511;SDS011;13414;44.534;18.700;2022-11-27T07:23:42;299.67;;;193.60;;
25511;SDS011;13414;44.534;18.700;2022-11-27T07:26:10;284.35;;;190.20;;
25511;SDS011;13414;44.534;18.700;2022-11-27T07:28:40;281.38;;;184.63;;
25511;SDS011;13414;44.534;18.700;2022-11-27T07:31:09;280.75;;;182.73;;
25511;SDS011;13414;44.534;18.700;2022-11-27T07:33:36;277.67;;;183.13;;
25511;SDS011;13414;44.534;18.700;2022-11-27T07:36:04;281.75;;;184.20;;
25511;SDS011;13414;44.534;18.700;2022-11-27T07:38:33;301.48;;;193.93;;
25511;SDS011;13414;44.534;18.700;2022-11-27T07:41:01;282.35;;;188.93;;
25511;SDS011;13414;44.534;18.700;2022-11-27T07:43:30;296.33;;;194.05;;
25511;SDS011;13414;44.534;18.700;2022-11-27T07:46:01;289.92;;;185.90;;
25511;SDS011;13414;44.534;18.700;2022-11-27T07:48:29;288.65;;;192.65;;
25511;SDS011;13414;44.534;18.700;2022-11-27T07:50:56;289.65;;;192.50;;
25511;SDS011;13414;44.534;18.700;2022-11-27T07:53:24;273.67;;;179.43;;
25511;SDS011;13414;44.534;18.700;2022-11-27T07:55:51;288.40;;;194.27;;
25511;SDS011;13414;44.534;18.700;2022-11-27T07:58:18;299.67;;;201.75;;
25511;SDS011;13414;44.534;18.700;2022-11-27T08:00:46;319.67;;;208.85;;
25511;SDS011;13414;44.534;18.700;2022-11-27T08:03:15;323.10;;;216.45;;
25511;SDS011;13414;44.534;18.700;2022-11-27T08:05:42;323.90;;;219.52;;
25511;SDS011;13414;44.534;18.700;2022-11-27T08:08:09;317.60;;;217.68;;
25511;SDS011;13414;44.534;18.700;2022-11-27T08:10:37;319.73;;;215.68;;
25511;SDS011;13414;44.534;18.700;2022-11-27T08:13:04;309.65;;;206.43;;
25511;SDS011;13414;44.534;18.700;2022-11-27T08:15:32;290.63;;;200.82;;
25511;SDS011;13414;44.534;18.700;2022-11-27T08:18:00;288.25;;;194.60;;
25511;SDS011;13414;44.534;18.700;2022-11-27T08:20:31;291.88;;;195.88;;
25511;SDS011;13414;44.534;18.700;2022-11-27T08:22:58;297.65;;;196.85;;
25511;SDS011;13414;44.534;18.700;2022-11-27T08:25:25;274.52;;;188.02;;
25511;SDS011;13414;44.534;18.700;2022-11-27T08:27:53;289.45;;;196.93;;
25511;SDS011;13414;44.534;18.700;2022-11-27T08:30:20;293.50;;;198.65;;
25511;SDS011;13414;44.534;18.700;2022-11-27T08:32:48;309.15;;;212.57;;
25511;SDS011;13414;44.534;18.700;2022-11-27T08:35:15;292.67;;;200.25;;
25511;SDS011;13414;44.534;18.700;2022-11-27T08:37:44;287.15;;;194.38;;
25511;SDS011;13414;44.534;18.700;2022-11-27T08:40:11;284.58;;;190.65;;
25511;SDS011;13414;44.534;18.700;2022-11-27T08:42:39;282.10;;;191.13;;
25511;SDS011;13414;44.534;18.700;2022-11-27T08:45:06;278.67;;;188.50;;
25511;SDS011;13414;44.534;18.700;2022-11-27T08:47:34;287.48;;;185.45;;
25511;SDS011;13414;44.534;18.700;2022-11-27T08:50:02;270.13;;;180.60;;
25511;SDS011;13414;44.534;18.700;2022-11-27T08:52:30;272.40;;;183.07;;
25511;SDS011;13414;44.534;18.700;2022-11-27T08:54:59;285.40;;;191.57;;
25511;SDS011;13414;44.534;18.700;2022-11-27T08:57:26;272.25;;;180.40;;
25511;SDS011;13414;44.534;18.700;2022-11-27T08:59:53;256.85;;;170.40;;
25511;SDS011;13414;44.534;18.700;2022-11-27T09:02:21;256.75;;;169.15;;
25511;SDS011;13414;44.534;18.700;2022-11-27T09:04:48;253.98;;;168.07;;
25511;SDS011;13414;44.534;18.700;2022-11-27T09:07:15;249.65;;;164.45;;
25511;SDS011;13414;44.534;18.700;2022-11-27T09:09:43;252.30;;;168.45;;
25511;SDS011;13414;44.534;18.700;2022-11-27T09:12:13;248.40;;;167.25;;
25511;SDS011;13414;44.534;18.700;2022-11-27T09:14:40;261.55;;;174.88;;
25511;SDS011;13414;44.534;18.700;2022-11-27T09:17:07;268.23;;;177.18;;
25511;SDS011;13414;44.534;18.700;2022-11-27T09:19:37;265.30;;;180.32;;
25511;SDS011;13414;44.534;18.700;2022-11-27T09:22:04;270.58;;;179.25;;
25511;SDS011;13414;44.534;18.700;2022-11-27T09:24:31;272.10;;;180.68;;
25511;SDS011;13414;44.534;18.700;2022-11-27T09:26:59;261.17;;;179.13;;
25511;SDS011;13414;44.534;18.700;2022-11-27T09:29:34;264.45;;;179.10;;
25511;SDS011;13414;44.534;18.700;2022-11-27T09:32:01;258.63;;;173.23;;
25511;SDS011;13414;44.534;18.700;2022-11-27T09:34:28;255.40;;;168.98;;
25511;SDS011;13414;44.534;18.700;2022-11-27T09:36:56;227.32;;;151.50;;
25511;SDS011;13414;44.534;18.700;2022-11-27T09:39:23;220.63;;;143.77;;
25511;SDS011;13414;44.534;18.700;2022-11-27T09:41:55;215.00;;;141.65;;
25511;SDS011;13414;44.534;18.700;2022-11-27T09:44:28;207.50;;;137.70;;
25511;SDS011;13414;44.534;18.700;2022-11-27T09:47:06;207.45;;;133.23;;
25511;SDS011;13414;44.534;18.700;2022-11-27T09:52:17;176.88;;;115.00;;
25511;SDS011;13414;44.534;18.700;2022-11-27T09:54:50;170.68;;;111.70;;
25511;SDS011;13414;44.534;18.700;2022-11-27T09:57:27;158.55;;;107.28;;
25511;SDS011;13414;44.534;18.700;2022-11-27T09:59:58;153.77;;;103.85;;
25511;SDS011;13414;44.534;18.700;2022-11-27T10:02:31;153.00;;;102.68;;
25511;SDS011;13414;44.534;18.700;2022-11-27T10:05:02;134.38;;;87.38;;
25511;SDS011;13414;44.534;18.700;2022-11-27T10:07:38;123.95;;;85.55;;
25511;SDS011;13414;44.534;18.700;2022-11-27T10:10:20;107.65;;;74.47;;
25511;SDS011;13414;44.534;18.700;2022-11-27T10:12:57;99.18;;;68.05;;
25511;SDS011;13414;44.534;18.700;2022-11-27T10:15:36;101.20;;;69.45;;
25511;SDS011;13414;44.534;18.700;2022-11-27T10:20:39;104.65;;;71.70;;
25511;SDS011;13414;44.534;18.700;2022-11-27T10:23:13;109.75;;;75.05;;
25511;SDS011;13414;44.534;18.700;2022-11-27T10:25:47;100.65;;;70.13;;
25511;SDS011;13414;44.534;18.700;2022-11-27T10:28:18;103.18;;;70.28;;
25511;SDS011;13414;44.534;18.700;2022-11-27T10:30:57;108.43;;;74.32;;
25511;SDS011;13414;44.534;18.700;2022-11-27T10:33:32;102.93;;;73.30;;
25511;SDS011;13414;44.534;18.700;2022-11-27T10:36:04;101.03;;;71.57;;
25511;SDS011;13414;44.534;18.700;2022-11-27T10:38:40;96.05;;;68.30;;
25511;SDS011;13414;44.534;18.700;2022-11-27T10:41:09;97.65;;;67.88;;
25511;SDS011;13414;44.534;18.700;2022-11-27T10:43:43;104.72;;;68.57;;
25511;SDS011;13414;44.534;18.700;2022-11-27T10:46:14;96.00;;;66.00;;
25511;SDS011;13414;44.534;18.700;2022-11-27T10:48:46;93.05;;;60.58;;
25511;SDS011;13414;44.534;18.700;2022-11-27T10:51:14;87.45;;;61.58;;
25511;SDS011;13414;44.534;18.700;2022-11-27T10:53:44;88.43;;;59.97;;
25511;SDS011;13414;44.534;18.700;2022-11-27T10:56:20;93.90;;;61.05;;
25511;SDS011;13414;44.534;18.700;2022-11-27T10:59:12;90.72;;;63.10;;
25511;SDS011;13414;44.534;18.700;2022-11-27T11:01:46;87.75;;;60.38;;
25511;SDS011;13414;44.534;18.700;2022-11-27T11:04:18;84.28;;;58.97;;
25511;SDS011;13414;44.534;18.700;2022-11-27T11:06:47;88.93;;;57.53;;
25511;SDS011;13414;44.534;18.700;2022-11-27T11:09:16;84.38;;;59.05;;
25511;SDS011;13414;44.534;18.700;2022-11-27T11:11:46;84.15;;;58.10;;
25511;SDS011;13414;44.534;18.700;2022-11-27T11:14:14;78.68;;;54.83;;
25511;SDS011;13414;44.534;18.700;2022-11-27T11:16:48;80.88;;;57.65;;
25511;SDS011;13414;44.534;18.700;2022-11-27T11:19:21;84.20;;;60.20;;
25511;SDS011;13414;44.534;18.700;2022-11-27T11:21:50;84.45;;;59.17;;
25511;SDS011;13414;44.534;18.700;2022-11-27T11:24:20;78.55;;;57.88;;
25511;SDS011;13414;44.534;18.700;2022-11-27T11:26:51;77.88;;;55.85;;
25511;SDS011;13414;44.534;18.700;2022-11-27T11:29:25;85.55;;;57.40;;
25511;SDS011;13414;44.534;18.700;2022-11-27T11:32:01;75.43;;;53.17;;
25511;SDS011;13414;44.534;18.700;2022-11-27T11:34:32;76.30;;;53.53;;
25511;SDS011;13414;44.534;18.700;2022-11-27T11:37:00;75.55;;;51.95;;
25511;SDS011;13414;44.534;18.700;2022-11-27T11:39:30;75.65;;;51.65;;
25511;SDS011;13414;44.534;18.700;2022-11-27T11:41:59;75.03;;;52.10;;
25511;SDS011;13414;44.534;18.700;2022-11-27T11:44:29;74.72;;;52.58;;
25511;SDS011;13414;44.534;18.700;2022-11-27T11:47:00;89.80;;;59.80;;
25511;SDS011;13414;44.534;18.700;2022-11-27T11:49:27;93.22;;;62.55;;
25511;SDS011;13414;44.534;18.700;2022-11-27T11:52:06;96.97;;;66.60;;
25511;SDS011;13414;44.534;18.700;2022-11-27T11:54:51;93.78;;;64.85;;
25511;SDS011;13414;44.534;18.700;2022-11-27T12:00:40;87.05;;;60.50;;
25511;SDS011;13414;44.534;18.700;2022-11-27T12:03:29;90.85;;;60.20;;
25511;SDS011;13414;44.534;18.700;2022-11-27T12:06:11;83.38;;;56.92;;
25511;SDS011;13414;44.534;18.700;2022-11-27T12:08:53;82.80;;;57.08;;
25511;SDS011;13414;44.534;18.700;2022-11-27T12:11:29;79.88;;;55.85;;
25511;SDS011;13414;44.534;18.700;2022-11-27T12:14:04;79.22;;;54.13;;
25511;SDS011;13414;44.534;18.700;2022-11-27T12:16:40;87.93;;;58.40;;
25511;SDS011;13414;44.534;18.700;2022-11-27T12:22:16;88.68;;;59.47;;
25511;SDS011;13414;44.534;18.700;2022-11-27T12:24:54;79.85;;;56.28;;
25511;SDS011;13414;44.534;18.700;2022-11-27T12:27:44;80.30;;;51.72;;
25511;SDS011;13414;44.534;18.700;2022-11-27T12:30:21;72.47;;;49.45;;
25511;SDS011;13414;44.534;18.700;2022-11-27T12:33:03;75.38;;;49.88;;
25511;SDS011;13414;44.534;18.700;2022-11-27T12:35:48;71.40;;;50.70;;
25511;SDS011;13414;44.534;18.700;2022-11-27T12:38:37;69.60;;;47.55;;
25511;SDS011;13414;44.534;18.700;2022-11-27T12:41:42;68.18;;;47.03;;
25511;SDS011;13414;44.534;18.700;2022-11-27T12:44:19;66.10;;;44.15;;
25511;SDS011;13414;44.534;18.700;2022-11-27T12:46:52;63.22;;;43.97;;
25511;SDS011;13414;44.534;18.700;2022-11-27T12:49:24;64.68;;;44.15;;
25511;SDS011;13414;44.534;18.700;2022-11-27T12:52:00;66.18;;;46.35;;
25511;SDS011;13414;44.534;18.700;2022-11-27T12:54:34;71.03;;;47.05;;
25511;SDS011;13414;44.534;18.700;2022-11-27T12:57:10;68.55;;;46.35;;
25511;SDS011;13414;44.534;18.700;2022-11-27T12:59:42;70.28;;;47.83;;
25511;SDS011;13414;44.534;18.700;2022-11-27T13:02:19;62.33;;;43.30;;
25511;SDS011;13414;44.534;18.700;2022-11-27T13:04:53;68.60;;;45.10;;
25511;SDS011;13414;44.534;18.700;2022-11-27T13:07:27;69.45;;;47.03;;
25511;SDS011;13414;44.534;18.700;2022-11-27T13:10:04;72.93;;;47.03;;
25511;SDS011;13414;44.534;18.700;2022-11-27T13:12:40;78.43;;;50.35;;
25511;SDS011;13414;44.534;18.700;2022-11-27T13:15:15;77.13;;;50.67;;
25511;SDS011;13414;44.534;18.700;2022-11-27T13:17:49;78.47;;;49.45;;
25511;SDS011;13414;44.534;18.700;2022-11-27T13:20:23;73.07;;;48.30;;
25511;SDS011;13414;44.534;18.700;2022-11-27T13:22:59;72.22;;;48.63;;
25511;SDS011;13414;44.534;18.700;2022-11-27T13:25:26;60.42;;;42.33;;
25511;SDS011;13414;44.534;18.700;2022-11-27T13:27:55;79.05;;;51.08;;
25511;SDS011;13414;44.534;18.700;2022-11-27T13:30:25;75.88;;;50.38;;
25511;SDS011;13414;44.534;18.700;2022-11-27T13:32:57;76.43;;;52.67;;
25511;SDS011;13414;44.534;18.700;2022-11-27T13:35:27;82.55;;;54.85;;
25511;SDS011;13414;44.534;18.700;2022-11-27T13:38:01;74.82;;;51.95;;
25511;SDS011;13414;44.534;18.700;2022-11-27T13:40:35;69.28;;;46.10;;
25511;SDS011;13414;44.534;18.700;2022-11-27T13:43:05;75.53;;;49.15;;
25511;SDS011;13414;44.534;18.700;2022-11-27T13:45:45;74.20;;;50.90;;
25511;SDS011;13414;44.534;18.700;2022-11-27T13:48:25;75.82;;;50.83;;
25511;SDS011;13414;44.534;18.700;2022-11-27T13:50:57;77.55;;;51.58;;
25511;SDS011;13414;44.534;18.700;2022-11-27T13:53:30;75.85;;;53.03;;
25511;SDS011;13414;44.534;18.700;2022-11-27T13:55:59;73.43;;;50.97;;
25511;SDS011;13414;44.534;18.700;2022-11-27T13:58:27;69.00;;;46.88;;
25511;SDS011;13414;44.534;18.700;2022-11-27T14:00:56;71.22;;;48.80;;
25511;SDS011;13414;44.534;18.700;2022-11-27T14:03:24;72.82;;;48.92;;
25511;SDS011;13414;44.534;18.700;2022-11-27T14:05:53;77.85;;;50.60;;
25511;SDS011;13414;44.534;18.700;2022-11-27T14:08:22;71.07;;;48.05;;
25511;SDS011;13414;44.534;18.700;2022-11-27T14:10:54;79.30;;;52.25;;
25511;SDS011;13414;44.534;18.700;2022-11-27T14:13:34;87.65;;;58.55;;
25511;SDS011;13414;44.534;18.700;2022-11-27T14:16:06;107.10;;;68.68;;
25511;SDS011;13414;44.534;18.700;2022-11-27T14:18:48;133.85;;;87.18;;
25511;SDS011;13414;44.534;18.700;2022-11-27T14:21:21;130.88;;;84.55;;
25511;SDS011;13414;44.534;18.700;2022-11-27T14:23:52;146.15;;;95.97;;